Time;durP1;ratioP1;P1;durP2;ratioP2;P2;SDS_P1;SDS_P2;PMS_P1;PMS_P2;Temp;Humidity;BMP_temperature;BMP_pressure;BME280_temperature;BME280_humidity;BME280_pressure;Samples;Min_cycle;Max_cycle;Signal;HPM_P1;HPM_P2
2022/11/06 00:00:46;;;;;;;11.82;6.40;;;;;;;9.08;84.81;101348.81;5048421;28;20027;-60
2022/11/06 00:03:11;;;;;;;11.43;6.10;;;;;;;9.17;84.96;101365.22;5045147;28;20040;-60
2022/11/06 00:08:33;;;;;;;9.52;5.97;;;;;;;9.10;85.26;101354.91;5044254;28;20068;-60
2022/11/06 00:11:06;;;;;;;16.65;6.75;;;;;;;9.12;84.71;101360.16;5049399;28;20029;-60
2022/11/06 00:13:32;;;;;;;9.13;6.18;;;;;;;9.09;84.75;101358.50;5037938;28;20416;-60
2022/11/06 00:16:02;;;;;;;14.80;5.80;;;;;;;9.14;84.55;101355.59;5034061;28;20025;-60
2022/11/06 00:18:27;;;;;;;11.50;5.95;;;;;;;9.07;85.20;101357.72;5036497;28;20052;-60
2022/11/06 00:20:53;;;;;;;11.80;6.25;;;;;;;9.05;85.41;101358.72;5044715;28;20510;-60
2022/11/06 00:23:18;;;;;;;10.77;6.15;;;;;;;8.99;85.13;101351.91;5050216;28;20029;-60
2022/11/06 00:25:43;;;;;;;12.93;5.95;;;;;;;8.99;85.24;101345.75;5041556;28;20377;-60
2022/11/06 00:28:11;;;;;;;12.07;6.53;;;;;;;8.98;85.43;101344.03;5035392;28;20052;-60
2022/11/06 00:30:37;;;;;;;15.68;6.07;;;;;;;8.96;85.43;101343.25;5033577;28;20120;-60
2022/11/06 00:33:03;;;;;;;11.75;5.43;;;;;;;8.93;85.39;101348.69;5053065;28;20048;-61
2022/11/06 00:35:28;;;;;;;9.13;5.75;;;;;;;8.90;85.54;101338.25;5050531;28;20055;-60
2022/11/06 00:37:55;;;;;;;12.20;6.38;;;;;;;8.87;85.47;101334.78;5036100;28;20388;-60
2022/11/06 00:40:20;;;;;;;12.50;5.65;;;;;;;8.87;85.56;101332.13;5046736;28;20033;-60
2022/11/06 00:42:51;;;;;;;12.05;5.20;;;;;;;8.86;85.59;101321.63;5040538;28;20071;-60
2022/11/06 00:45:17;;;;;;;9.45;6.07;;;;;;;8.83;86.08;101317.31;5032645;28;20059;-60
2022/11/06 00:47:43;;;;;;;10.20;5.72;;;;;;;8.87;85.67;101323.31;5038271;28;20492;-61
2022/11/06 00:50:09;;;;;;;10.20;5.90;;;;;;;8.85;85.93;101320.78;5052429;28;20024;-60
2022/11/06 00:52:34;;;;;;;10.40;5.53;;;;;;;8.84;85.59;101324.34;5045828;28;20044;-61
2022/11/06 00:55:00;;;;;;;10.50;5.47;;;;;;;8.82;85.99;101325.34;5030972;28;20034;-60
2022/11/06 00:57:25;;;;;;;9.00;5.57;;;;;;;8.81;86.21;101319.19;5016197;28;20477;-60
2022/11/06 00:59:50;;;;;;;11.63;5.45;;;;;;;8.81;85.80;101323.63;5042104;28;20036;-61
2022/11/06 01:02:18;;;;;;;11.70;5.55;;;;;;;8.78;86.16;101335.25;5049919;28;20040;-61
2022/11/06 01:04:43;;;;;;;10.32;5.15;;;;;;;8.76;86.06;101328.28;5021629;28;20480;-60
2022/11/06 01:07:09;;;;;;;8.65;5.10;;;;;;;8.72;86.46;101330.22;5032167;28;20037;-60
2022/11/06 01:09:34;;;;;;;15.00;6.07;;;;;;;8.71;86.77;101327.66;5042959;28;20025;-60
2022/11/06 01:12:00;;;;;;;12.55;5.15;;;;;;;8.71;86.58;101327.66;5034899;28;20079;-60
2022/11/06 01:14:27;;;;;;;10.45;5.68;;;;;;;8.66;86.89;101329.66;5053287;28;20043;-60
2022/11/06 01:16:52;;;;;;;11.32;5.28;;;;;;;8.63;86.68;101318.25;5037946;28;20036;-60
2022/11/06 01:19:19;;;;;;;11.13;5.55;;;;;;;8.66;86.86;101311.09;5036561;28;20025;-60
2022/11/06 01:21:47;;;;;;;10.07;5.57;;;;;;;8.63;86.81;101315.63;5045639;28;20032;-60
2022/11/06 01:24:18;;;;;;;9.20;5.22;;;;;;;8.62;86.88;101316.56;5035285;28;20115;-60
2022/11/06 01:26:47;;;;;;;10.88;5.22;;;;;;;8.61;87.02;101314.81;5031138;28;20041;-61
2022/11/06 01:29:14;;;;;;;8.93;4.77;;;;;;;8.63;87.20;101312.97;5044847;28;20029;-60
2022/11/06 01:31:40;;;;;;;13.60;4.80;;;;;;;8.69;87.02;101313.63;5047615;28;20021;-60
2022/11/06 01:34:06;;;;;;;14.40;5.03;;;;;;;8.63;87.40;101307.66;5050729;28;20032;-60
2022/11/06 01:36:32;;;;;;;7.15;5.13;;;;;;;8.62;86.79;101305.94;5050787;28;20396;-60
2022/11/06 01:39:00;;;;;;;10.48;4.57;;;;;;;8.67;87.09;101288.94;5051768;28;20499;-60
2022/11/06 01:41:36;;;;;;;9.45;5.05;;;;;;;8.70;86.71;101294.09;5044629;28;20353;-60
2022/11/06 01:44:25;;;;;;;10.52;5.30;;;;;;;8.71;87.00;101286.09;5030994;28;20033;-60
2022/11/06 01:46:50;;;;;;;10.50;5.05;;;;;;;8.76;86.53;101281.41;5035145;28;20384;-60
2022/11/06 01:49:16;;;;;;;14.52;4.88;;;;;;;8.78;86.68;101281.34;5041957;28;20029;-60
2022/11/06 01:51:55;;;;;;;13.40;5.07;;;;;;;8.83;86.32;101292.59;5045547;28;20028;-60
2022/11/06 01:54:24;;;;;;;10.18;5.68;;;;;;;8.81;86.29;101287.34;5041051;28;20515;-60
2022/11/06 01:56:54;;;;;;;10.57;4.35;;;;;;;8.85;86.65;101288.06;5031837;28;20037;-60
2022/11/06 01:59:24;;;;;;;9.65;4.68;;;;;;;8.88;86.26;101274.63;5031238;28;20045;-60
2022/11/06 02:01:51;;;;;;;9.55;4.53;;;;;;;8.88;86.37;101274.63;5037102;28;20029;-60
2022/11/06 02:04:21;;;;;;;9.55;4.63;;;;;;;8.89;86.35;101273.72;5049137;28;20029;-60
2022/11/06 02:06:47;;;;;;;12.85;5.07;;;;;;;8.93;85.89;101275.28;5046045;28;20034;-60
2022/11/06 02:09:16;;;;;;;13.95;4.55;;;;;;;8.95;85.88;101276.06;5033610;28;20033;-60
2022/11/06 02:11:44;;;;;;;15.80;5.17;;;;;;;8.95;85.92;101270.75;5031265;28;20021;-60
2022/11/06 02:14:26;;;;;;;12.95;4.70;;;;;;;8.96;86.01;101255.69;5031406;28;20288;-60
2022/11/06 02:17:00;;;;;;;10.98;3.97;;;;;;;8.99;85.95;101271.47;5044096;28;20112;-60
2022/11/06 02:19:58;;;;;;;10.25;4.25;;;;;;;9.02;85.68;101260.69;5044108;28;20041;-60
2022/11/06 02:22:58;;;;;;;12.45;4.60;;;;;;;9.03;85.67;101257.09;5038585;28;20048;-60
2022/11/06 02:25:45;;;;;;;9.90;4.78;;;;;;;9.05;85.61;101255.25;5031200;28;20025;-61
2022/11/06 02:28:24;;;;;;;8.85;4.78;;;;;;;9.03;85.96;101250.03;5051269;28;20063;-60
2022/11/06 02:30:52;;;;;;;7.28;4.35;;;;;;;8.98;86.17;101249.38;5043487;28;20025;-60
2022/11/06 02:33:28;;;;;;;11.50;4.47;;;;;;;9.00;85.66;101258.13;5034888;28;20017;-60
2022/11/06 02:36:15;;;;;;;10.20;5.03;;;;;;;9.02;86.08;101256.25;5041861;28;20515;-60
2022/11/06 02:38:47;;;;;;;11.05;4.95;;;;;;;9.00;85.75;101247.53;5048116;28;20025;-60
2022/11/06 02:41:24;;;;;;;14.18;4.95;;;;;;;9.00;85.81;101244.00;5043615;28;20090;-60
2022/11/06 02:43:55;;;;;;;12.15;4.80;;;;;;;9.03;85.59;101241.19;5054915;28;20033;-60
2022/11/06 02:46:30;;;;;;;10.70;4.65;;;;;;;9.00;86.12;101239.56;5054114;28;20108;-60
2022/11/06 02:49:02;;;;;;;9.15;4.35;;;;;;;9.01;86.04;101243.06;5053828;28;20442;-60
2022/11/06 02:51:29;;;;;;;10.07;4.63;;;;;;;9.00;85.82;101238.69;5051759;28;20543;-60
2022/11/06 02:53:59;;;;;;;8.38;4.38;;;;;;;8.95;85.79;101232.78;5055187;28;20024;-60
2022/11/06 02:56:31;;;;;;;9.88;4.55;;;;;;;8.99;85.93;101242.28;5046165;28;20032;-60
2022/11/06 02:59:22;;;;;;;13.30;4.88;;;;;;;9.01;86.35;101237.78;5050785;28;20024;-60
2022/11/06 03:01:53;;;;;;;12.05;4.82;;;;;;;8.97;85.86;101245.03;5049770;28;20037;-60
2022/11/06 03:04:26;;;;;;;12.38;4.22;;;;;;;9.00;86.00;101254.59;5036338;28;20037;-60
2022/11/06 03:07:30;;;;;;;9.88;4.32;;;;;;;9.00;85.96;101255.50;5049168;28;20025;-60
2022/11/06 03:09:56;;;;;;;8.73;4.20;;;;;;;8.97;86.02;101260.06;5045044;28;20102;-60
2022/11/06 03:12:28;;;;;;;10.40;4.93;;;;;;;8.99;86.20;101268.81;5041570;28;20017;-60
2022/11/06 03:15:04;;;;;;;9.23;4.03;;;;;;;9.03;86.10;101265.94;5033441;28;20059;-60
2022/11/06 03:17:45;;;;;;;8.55;4.65;;;;;;;9.03;86.07;101244.72;5042864;28;20115;-60
2022/11/06 03:20:29;;;;;;;6.65;3.90;;;;;;;9.03;86.69;101242.06;5043505;28;20447;-60
2022/11/06 03:22:58;;;;;;;8.02;4.40;;;;;;;9.03;86.25;101247.38;5032898;28;20037;-60
2022/11/06 03:26:09;;;;;;;9.65;4.40;;;;;;;9.05;86.74;101228.72;5033566;28;20029;-60
2022/11/06 03:28:45;;;;;;;11.85;4.65;;;;;;;8.99;86.30;101218.41;5036979;28;20480;-60
2022/11/06 03:31:16;;;;;;;9.20;4.47;;;;;;;8.99;86.33;101216.59;5035115;28;20053;-60
2022/11/06 03:33:56;;;;;;;10.88;4.30;;;;;;;8.97;86.80;101218.50;5033212;28;20021;-60
2022/11/06 03:36:32;;;;;;;12.30;4.55;;;;;;;8.93;86.68;101206.31;5034130;28;20032;-60
2022/11/06 03:39:11;;;;;;;10.13;4.82;;;;;;;8.88;87.16;101213.63;5033977;28;20476;-60
2022/11/06 03:41:52;;;;;;;11.70;4.50;;;;;;;8.87;87.45;101204.81;5045285;28;20119;-60
2022/11/06 03:44:23;;;;;;;8.07;4.30;;;;;;;8.86;87.26;101204.91;5049689;28;20296;-60
2022/11/06 03:47:01;;;;;;;9.23;4.25;;;;;;;8.84;87.69;101196.16;5032410;28;20469;-60
2022/11/06 03:49:45;;;;;;;8.95;4.53;;;;;;;8.87;87.60;101191.56;5036948;28;20025;-60
2022/11/06 03:52:16;;;;;;;10.70;4.70;;;;;;;8.89;87.65;101188.84;5049826;28;20049;-60
2022/11/06 03:54:49;;;;;;;7.75;4.40;;;;;;;8.88;87.71;101181.81;5033493;28;20057;-60
2022/11/06 03:57:22;;;;;;;11.85;4.72;;;;;;;8.87;87.34;101170.34;5033651;28;20032;-60
2022/11/06 03:59:54;;;;;;;10.13;4.55;;;;;;;8.92;87.21;101169.28;5040106;28;20391;-60
2022/11/06 04:02:22;;;;;;;10.82;4.65;;;;;;;8.97;87.66;101176.06;5035639;28;20030;-60
2022/11/06 04:04:55;;;;;;;10.70;4.43;;;;;;;8.93;87.47;101173.63;5052152;28;20056;-60
2022/11/06 04:07:25;;;;;;;7.65;4.50;;;;;;;8.97;87.66;101167.22;5051481;28;20033;-61
2022/11/06 04:15:34;;;;;;;12.20;5.28;;;;;;;9.01;87.67;101171.44;5052162;28;20040;-61
2022/11/06 04:18:02;;;;;;;14.40;4.82;;;;;;;9.01;87.78;101160.84;5049328;28;20132;-60
2022/11/06 04:23:33;;;;;;;7.72;4.63;;;;;;;9.02;87.68;101143.97;5042735;28;20037;-60
2022/11/06 04:26:35;;;;;;;12.15;4.38;;;;;;;9.04;87.66;101140.31;5050254;28;20110;-60
2022/11/06 04:29:03;;;;;;;9.90;4.82;;;;;;;9.05;87.81;101127.88;5046322;28;20124;-60
2022/11/06 04:31:36;;;;;;;11.98;4.78;;;;;;;9.03;87.81;101138.59;5043057;28;20064;-60
2022/11/06 04:34:17;;;;;;;10.40;4.88;;;;;;;9.02;88.12;101136.00;5038101;28;20473;-60
2022/11/06 04:37:07;;;;;;;8.77;4.88;;;;;;;9.00;88.14;101133.44;5034261;28;20025;-60
2022/11/06 04:39:39;;;;;;;12.18;4.60;;;;;;;9.01;88.33;101134.31;5041669;28;20041;-60
2022/11/06 04:42:04;;;;;;;11.57;4.70;;;;;;;9.01;88.20;101132.50;5036739;28;20384;-60
2022/11/06 04:44:39;;;;;;;7.63;4.75;;;;;;;9.00;88.45;101129.91;5042374;28;20024;-60
2022/11/06 04:47:10;;;;;;;11.77;4.95;;;;;;;8.99;88.64;101133.50;5036813;28;20021;-60
2022/11/06 04:49:39;;;;;;;10.10;3.97;;;;;;;8.98;88.74;101124.69;5032250;28;20033;-60
2022/11/06 04:52:10;;;;;;;11.32;4.22;;;;;;;8.96;88.65;101118.63;5047090;28;20543;-60
2022/11/06 04:54:35;;;;;;;9.02;4.00;;;;;;;8.97;88.58;101127.41;5034357;28;20108;-60
2022/11/06 04:57:02;;;;;;;10.07;4.25;;;;;;;8.93;89.08;101131.19;5032723;28;20176;-60
2022/11/06 04:59:32;;;;;;;12.88;4.22;;;;;;;8.90;89.10;101128.69;5041512;28;20410;-60
2022/11/06 05:01:58;;;;;;;;;;;;;;;8.95;89.09;101118.72;5042696;28;20480;-60
2022/11/06 05:04:23;;;;;;;9.02;4.53;;;;;;;8.90;89.41;101115.44;5031451;28;19920;-60
2022/11/06 05:06:48;;;;;;;6.60;4.07;;;;;;;8.89;89.16;101114.56;5046456;28;20055;-60
2022/11/06 05:09:14;;;;;;;10.45;4.78;;;;;;;8.91;89.27;101117.97;5031288;28;20039;-60
2022/11/06 05:11:39;;;;;;;8.82;4.50;;;;;;;8.87;89.54;101114.63;5040605;28;20063;-60
2022/11/06 05:14:07;;;;;;;6.72;4.05;;;;;;;8.85;89.34;101103.28;5031464;28;20026;-60
2022/11/06 05:16:33;;;;;;;12.95;4.20;;;;;;;8.89;89.75;101103.13;5032212;28;20392;-60
2022/11/06 05:18:59;;;;;;;12.85;4.55;;;;;;;8.87;89.74;101106.69;5038137;28;20580;-60
2022/11/06 05:24:11;;;;;;;6.55;4.00;;;;;;;8.85;90.00;101097.97;5043588;28;20049;-60
2022/11/06 05:26:38;;;;;;;11.00;4.63;;;;;;;8.86;90.15;101091.72;5030725;28;20047;-60
2022/11/06 05:29:04;;;;;;;10.02;4.75;;;;;;;8.85;90.02;101097.09;5033378;28;20500;-60
2022/11/06 05:31:29;;;;;;;9.20;4.03;;;;;;;8.87;90.04;101098.72;5046949;28;20037;-60
2022/11/06 05:33:55;;;;;;;9.73;4.40;;;;;;;8.85;90.23;101095.31;5031504;28;20036;-60
2022/11/06 05:36:20;;;;;;;7.70;4.10;;;;;;;8.83;90.42;101102.50;5033414;28;20037;-60
2022/11/06 05:38:45;;;;;;;10.10;4.13;;;;;;;8.83;90.04;101097.19;5030598;28;20064;-60
2022/11/06 05:41:11;;;;;;;9.38;4.22;;;;;;;8.85;90.22;101097.09;5034298;28;20032;-60
2022/11/06 05:43:36;;;;;;;8.95;4.25;;;;;;;8.83;90.18;101083.06;5050613;28;20412;-60
2022/11/06 05:46:02;;;;;;;8.90;4.10;;;;;;;8.82;90.15;101081.34;5049748;28;20387;-60
2022/11/06 05:48:28;;;;;;;7.68;4.00;;;;;;;8.83;90.19;101089.22;5046796;28;20036;-60
2022/11/06 05:51:01;;;;;;;8.18;4.28;;;;;;;8.80;90.52;101081.44;5048043;28;20066;-60
2022/11/06 05:53:30;;;;;;;8.63;4.30;;;;;;;8.77;90.50;101081.59;5049429;28;20138;-60
2022/11/06 05:55:55;;;;;;;7.97;4.00;;;;;;;8.81;90.05;101084.94;5049908;28;20033;-60
2022/11/06 05:58:21;;;;;;;9.43;4.05;;;;;;;8.83;90.17;101083.91;5042426;28;20095;-60
2022/11/06 06:00:47;;;;;;;10.52;4.65;;;;;;;8.83;90.48;101069.81;5042439;28;20064;-60
2022/11/06 06:03:15;;;;;;;8.35;3.83;;;;;;;8.84;90.41;101075.00;5014079;28;20052;-60
2022/11/06 06:05:41;;;;;;;9.73;4.18;;;;;;;8.83;90.15;101073.31;5045464;28;20128;-60
2022/11/06 06:08:06;;;;;;;7.95;4.40;;;;;;;8.80;90.07;101078.78;5035495;28;20123;-60
2022/11/06 06:10:32;;;;;;;6.50;3.97;;;;;;;8.79;90.10;101087.66;5049774;28;20487;-60
2022/11/06 06:12:58;;;;;;;8.50;3.92;;;;;;;8.78;90.27;101078.00;5047802;28;20028;-60
2022/11/06 06:15:23;;;;;;;9.95;4.15;;;;;;;8.73;90.40;101065.91;5046151;28;20025;-60
2022/11/06 06:17:48;;;;;;;8.48;4.10;;;;;;;8.77;90.53;101070.97;5031568;28;20542;-60
2022/11/06 06:20:14;;;;;;;6.97;3.75;;;;;;;8.75;90.26;101056.94;5046973;28;20055;-60
2022/11/06 06:22:39;;;;;;;9.13;3.67;;;;;;;8.77;89.97;101065.69;5014272;28;20030;-60
2022/11/06 06:25:06;;;;;;;6.65;3.50;;;;;;;8.81;89.88;101050.47;5030714;28;20033;-60
2022/11/06 06:27:31;;;;;;;7.65;3.90;;;;;;;8.78;90.17;101058.56;5043906;28;20048;-60
2022/11/06 06:29:59;;;;;;;11.85;4.63;;;;;;;8.76;89.68;101058.63;5038636;28;20021;-60
2022/11/06 06:32:24;;;;;;;9.88;4.05;;;;;;;8.77;89.88;101063.03;5027299;28;20033;-60
2022/11/06 06:34:50;;;;;;;8.05;4.15;;;;;;;8.82;89.38;101070.72;5051057;28;20048;-60
2022/11/06 06:37:15;;;;;;;7.97;3.90;;;;;;;8.79;89.46;101069.09;5031184;28;20025;-61
2022/11/06 06:39:41;;;;;;;9.77;4.28;;;;;;;8.81;89.89;101071.69;5040733;28;20033;-60
2022/11/06 06:42:08;;;;;;;12.48;4.20;;;;;;;8.83;89.77;101077.75;5025423;28;20036;-60
2022/11/06 06:44:34;;;;;;;8.43;3.70;;;;;;;8.81;89.76;101080.47;5048874;28;20037;-60
2022/11/06 06:46:59;;;;;;;8.13;4.18;;;;;;;8.85;89.83;101071.44;5035117;28;20051;-60
2022/11/06 06:49:25;;;;;;;11.77;5.10;;;;;;;8.84;89.41;101077.66;5030640;28;20067;-60
2022/11/06 06:51:51;;;;;;;8.52;4.90;;;;;;;8.84;89.45;101069.72;5046359;28;20423;-60
2022/11/06 06:54:16;;;;;;;10.43;4.10;;;;;;;8.89;89.32;101064.19;5050013;28;20031;-60
2022/11/06 06:56:41;;;;;;;8.13;4.13;;;;;;;8.87;89.20;101058.94;5030541;28;20042;-60
2022/11/06 06:59:07;;;;;;;8.25;4.47;;;;;;;8.91;89.37;101056.13;5030804;28;20022;-60
2022/11/06 07:01:33;;;;;;;7.40;3.97;;;;;;;8.94;89.54;101050.66;5036660;28;20047;-60
2022/11/06 07:03:58;;;;;;;8.50;4.40;;;;;;;8.96;89.08;101054.94;5047811;28;20025;-60
2022/11/06 07:06:24;;;;;;;9.63;4.55;;;;;;;8.98;88.86;101058.38;5036479;28;20040;-60
2022/11/06 07:08:56;;;;;;;8.05;4.07;;;;;;;9.05;89.52;101062.41;5048513;28;20433;-60
2022/11/06 07:11:21;;;;;;;9.57;4.18;;;;;;;9.10;89.23;101064.84;5048311;28;20124;-60
2022/11/06 07:13:47;;;;;;;8.88;4.40;;;;;;;9.14;88.94;101057.56;5049071;28;20119;-60
2022/11/06 07:16:12;;;;;;;9.43;4.05;;;;;;;9.19;88.78;101058.19;5041248;28;20108;-60
2022/11/06 07:18:41;;;;;;;10.23;4.40;;;;;;;9.23;88.22;101052.59;5030157;28;20029;-60
2022/11/06 07:21:09;;;;;;;8.23;4.20;;;;;;;9.25;87.96;101055.19;5045655;28;20553;-60
2022/11/06 07:23:35;;;;;;;12.27;4.20;;;;;;;9.31;87.98;101060.16;5029603;28;20108;-60
2022/11/06 07:26:02;;;;;;;13.10;4.60;;;;;;;9.32;87.89;101057.44;5039640;28;20025;-60
2022/11/06 07:28:30;;;;;;;7.75;4.38;;;;;;;9.37;88.03;101051.00;5054151;28;20625;-60
2022/11/06 07:31:00;;;;;;;9.85;4.22;;;;;;;9.39;87.85;101063.25;5039906;28;20021;-60
2022/11/06 07:33:25;;;;;;;7.68;4.15;;;;;;;9.42;87.41;101055.13;5033616;28;20084;-60
2022/11/06 07:35:51;;;;;;;7.60;4.22;;;;;;;9.45;87.29;101056.75;5035451;28;20041;-60
2022/11/06 07:38:16;;;;;;;9.45;4.18;;;;;;;9.49;87.37;101060.94;5034297;28;20037;-60
2022/11/06 07:40:42;;;;;;;9.35;3.90;;;;;;;9.52;87.05;101061.63;5044149;28;20479;-60
2022/11/06 07:43:10;;;;;;;12.98;5.00;;;;;;;9.53;86.92;101059.84;5050076;28;20551;-60
2022/11/06 07:45:36;;;;;;;10.65;3.85;;;;;;;9.57;86.79;101044.59;5046242;28;20033;-60
2022/11/06 07:48:02;;;;;;;8.73;4.40;;;;;;;9.62;86.85;101043.41;5044155;28;20024;-60
2022/11/06 07:50:28;;;;;;;8.15;3.85;;;;;;;9.64;86.73;101044.16;5054131;28;20025;-60
2022/11/06 07:52:54;;;;;;;9.73;4.00;;;;;;;9.63;86.49;101029.19;5042890;28;20021;-60
2022/11/06 07:55:19;;;;;;;8.05;4.03;;;;;;;9.70;86.19;101024.38;5038829;28;20037;-60
2022/11/06 07:57:45;;;;;;;7.72;4.32;;;;;;;9.76;86.54;101032.00;5044332;28;20029;-60
2022/11/06 08:00:11;;;;;;;8.73;3.58;;;;;;;9.81;86.09;101019.31;5036576;28;20533;-60
2022/11/06 08:02:37;;;;;;;7.70;4.22;;;;;;;9.84;86.14;101018.28;5051447;28;20112;-60
2022/11/06 08:05:04;;;;;;;7.88;3.90;;;;;;;9.86;85.90;101021.72;5053036;28;20151;-60
2022/11/06 08:07:30;;;;;;;5.70;3.45;;;;;;;9.84;85.27;101027.09;5045376;28;20029;-60
2022/11/06 08:09:55;;;;;;;9.70;3.70;;;;;;;9.86;85.76;101035.00;5035226;28;20040;-60
2022/11/06 08:12:21;;;;;;;7.18;3.38;;;;;;;9.86;85.61;101038.50;5014936;28;20045;-61
2022/11/06 08:14:46;;;;;;;8.90;3.95;;;;;;;9.89;85.73;101032.16;5038399;28;20032;-60
2022/11/06 08:17:12;;;;;;;11.57;4.20;;;;;;;9.91;86.05;101032.91;5043614;28;20492;-61
2022/11/06 08:19:39;;;;;;;8.15;3.63;;;;;;;9.94;85.45;101024.75;5051587;28;20033;-60
2022/11/06 08:22:05;;;;;;;10.50;3.83;;;;;;;9.91;85.75;101017.84;5044814;28;20041;-60
2022/11/06 08:24:30;;;;;;;9.13;3.97;;;;;;;9.98;85.11;101018.34;5031450;28;20036;-60
2022/11/06 08:26:57;;;;;;;7.80;3.95;;;;;;;10.00;84.88;101012.00;5045722;28;20133;-60
2022/11/06 08:29:22;;;;;;;7.25;3.65;;;;;;;10.02;84.73;101010.09;5052402;28;20029;-60
2022/11/06 08:31:47;;;;;;;8.57;3.40;;;;;;;10.06;84.86;101020.53;5046803;28;20029;-60
2022/11/06 08:34:13;;;;;;;6.18;3.55;;;;;;;10.05;84.61;101006.41;5046539;28;20423;-60
2022/11/06 08:36:44;;;;;;;7.15;3.67;;;;;;;10.15;84.68;101012.91;5048067;28;20029;-61
2022/11/06 08:39:13;;;;;;;7.75;3.90;;;;;;;10.17;84.47;101013.66;5052328;28;20063;-61
2022/11/06 08:41:41;;;;;;;6.47;3.70;;;;;;;10.19;83.92;100997.63;5045582;28;20059;-60
2022/11/06 08:44:07;;;;;;;9.63;3.88;;;;;;;10.18;83.30;100999.44;5046848;28;20029;-60
2022/11/06 08:46:35;;;;;;;7.63;3.58;;;;;;;10.26;83.40;100995.47;5051687;28;20063;-60
2022/11/06 08:49:00;;;;;;;7.28;4.32;;;;;;;10.28;83.62;100989.13;5046749;28;20503;-61
2022/11/06 08:51:25;;;;;;;9.68;4.20;;;;;;;10.31;83.47;100994.28;5050104;28;20060;-60
2022/11/06 08:53:57;;;;;;;7.68;3.33;;;;;;;10.40;82.72;100990.22;5015486;28;20025;-60
2022/11/06 08:56:22;;;;;;;7.65;3.28;;;;;;;10.47;82.31;100978.28;5030759;28;20472;-60
2022/11/06 08:58:48;;;;;;;6.00;3.50;;;;;;;10.57;82.09;100975.91;5015428;28;20071;-60
2022/11/06 09:01:14;;;;;;;9.85;3.78;;;;;;;10.66;81.79;100981.50;5031117;28;20112;-60
2022/11/06 09:03:39;;;;;;;6.63;3.30;;;;;;;10.72;80.53;100971.44;5041567;28;20476;-60
2022/11/06 09:06:08;;;;;;;4.60;3.15;;;;;;;10.80;81.13;100987.78;5031365;28;20037;-60
2022/11/06 09:08:34;;;;;;;5.22;3.45;;;;;;;10.82;80.31;100970.75;5039350;28;20021;-60
2022/11/06 09:10:59;;;;;;;7.45;3.63;;;;;;;10.82;80.14;100973.41;5050796;28;20044;-60
2022/11/06 09:13:25;;;;;;;9.63;3.63;;;;;;;10.80;79.94;100956.72;5039708;28;20059;-60
2022/11/06 09:15:50;;;;;;;10.25;3.30;;;;;;;10.83;79.95;100961.84;5030276;28;20048;-60
2022/11/06 09:18:16;;;;;;;7.82;3.55;;;;;;;10.88;80.40;100964.19;5033651;28;20087;-59
2022/11/06 09:20:41;;;;;;;5.63;3.40;;;;;;;10.91;80.06;100948.94;5031286;28;20061;-59
2022/11/06 09:23:08;;;;;;;6.47;3.38;;;;;;;10.92;79.10;100941.78;5033200;28;20820;-59
2022/11/06 09:25:34;;;;;;;6.07;3.08;;;;;;;10.93;79.21;100935.50;5032055;28;20480;-60
2022/11/06 09:28:02;;;;;;;7.47;3.25;;;;;;;11.05;78.83;100934.72;5031735;28;20120;-60
2022/11/06 09:30:30;;;;;;;5.88;3.03;;;;;;;11.09;79.29;100922.94;5031663;28;20029;-60
2022/11/06 09:32:59;;;;;;;9.18;3.50;;;;;;;11.08;78.96;100921.22;5035059;28;20047;-60
2022/11/06 09:35:26;;;;;;;6.85;3.30;;;;;;;11.06;78.24;100922.25;5051834;28;20476;-60
2022/11/06 09:37:52;;;;;;;6.63;3.53;;;;;;;11.02;78.05;100918.09;5052111;28;20118;-60
2022/11/06 09:40:47;;;;;;;9.18;2.97;;;;;;;11.09;78.38;100935.41;5040039;28;20476;-59
2022/11/06 09:43:24;;;;;;;5.82;3.30;;;;;;;11.11;77.57;100915.69;5032230;28;20075;-60
2022/11/06 09:45:53;;;;;;;6.25;3.08;;;;;;;11.16;77.63;100920.75;5031807;28;20022;-59
2022/11/06 09:48:24;;;;;;;5.05;2.80;;;;;;;11.29;77.39;100921.63;5031575;28;20365;-59
2022/11/06 09:50:56;;;;;;;5.55;2.90;;;;;;;11.26;76.64;100927.16;5032162;28;20392;-60
2022/11/06 09:53:30;;;;;;;9.43;3.15;;;;;;;11.30;77.19;100920.72;5039482;28;20028;-60
2022/11/06 09:55:59;;;;;;;6.97;2.70;;;;;;;11.27;77.18;100918.25;5048357;28;20029;-59
2022/11/06 09:58:34;;;;;;;5.40;3.30;;;;;;;11.30;77.33;100919.84;5035541;28;20611;-59
2022/11/06 10:01:12;;;;;;;5.97;2.78;;;;;;;11.36;76.96;100922.97;5050133;28;20496;-59
2022/11/06 10:03:53;;;;;;;10.43;4.53;;;;;;;11.47;77.23;100910.75;5051478;28;20037;-59
2022/11/06 10:06:20;;;;;;;4.65;2.97;;;;;;;11.78;76.23;100917.56;5051513;28;20094;-59
2022/11/06 10:08:47;;;;;;;7.95;2.65;;;;;;;12.10;75.13;100907.41;5045153;28;20060;-59
2022/11/06 10:11:13;;;;;;;8.20;3.08;;;;;;;12.19;73.31;100901.44;5031273;28;20487;-59
2022/11/06 10:13:55;;;;;;;10.23;3.25;;;;;;;12.24;73.77;100907.31;5031904;28;20034;-59
2022/11/06 10:16:33;;;;;;;5.32;3.10;;;;;;;12.16;72.27;100896.34;5032152;28;20101;-59
2022/11/06 10:19:26;;;;;;;8.50;2.90;;;;;;;12.06;72.96;100900.59;5032644;28;20095;-59
2022/11/06 10:22:02;;;;;;;6.40;2.95;;;;;;;11.89;73.14;100900.91;5031430;28;20065;-60
2022/11/06 10:25:01;;;;;;;12.00;3.55;;;;;;;11.73;73.50;100893.03;5044768;28;20550;-60
2022/11/06 10:27:34;;;;;;;;;;;;;;;11.76;74.42;100895.47;5051720;28;20049;-60
2022/11/06 10:30:02;;;;;;;12.63;3.03;;;;;;;11.63;73.20;100891.94;5046137;28;19920;-60
2022/11/06 10:32:52;;;;;;;6.47;3.47;;;;;;;11.64;73.78;100898.97;5047053;28;20064;-60
2022/11/06 10:35:20;;;;;;;;;;;;;;;11.65;74.42;100890.91;5031498;28;20155;-60
2022/11/06 10:38:13;;;;;;;5.85;2.83;;;;;;;11.58;74.34;100887.75;5031394;28;20419;-59
2022/11/06 10:40:47;;;;;;;7.97;2.75;;;;;;;11.62;74.27;100876.91;5031718;28;20469;-59
2022/11/06 10:43:47;;;;;;;6.80;3.00;;;;;;;11.67;73.96;100874.78;5030051;28;20029;-59
2022/11/06 10:46:37;;;;;;;7.82;3.20;;;;;;;11.76;74.07;100863.50;5029859;28;20048;-59
2022/11/06 10:49:15;;;;;;;7.95;3.13;;;;;;;11.88;72.89;100862.69;5040574;28;20025;-59
2022/11/06 10:51:46;;;;;;;10.02;3.40;;;;;;;11.90;73.07;100858.13;5029823;28;20041;-60
2022/11/06 10:54:23;;;;;;;13.07;3.50;;;;;;;12.02;72.07;100851.09;5035528;28;20028;-59
2022/11/06 10:57:01;;;;;;;7.10;3.08;;;;;;;12.28;71.70;100834.13;5031288;28;20022;-59
2022/11/06 10:59:27;;;;;;;6.55;2.72;;;;;;;12.62;70.00;100833.56;5035191;28;20412;-60
2022/11/06 11:01:52;;;;;;;4.88;2.67;;;;;;;12.74;69.96;100835.34;5039255;28;20028;-59
2022/11/06 11:04:18;;;;;;;7.10;2.38;;;;;;;12.62;69.29;100818.41;5053313;28;20067;-60
2022/11/06 11:06:43;;;;;;;8.65;2.88;;;;;;;12.51;69.74;100821.00;5048602;28;20083;-59
2022/11/06 11:09:32;;;;;;;8.00;2.88;;;;;;;12.55;70.29;100817.13;5065213;28;20029;-60
2022/11/06 11:12:00;;;;;;;9.75;2.92;;;;;;;12.47;69.60;100809.69;5035005;28;20025;-59
2022/11/06 11:14:30;;;;;;;7.70;2.95;;;;;;;12.49;69.42;100814.91;5054682;28;20021;-59
2022/11/06 11:17:06;;;;;;;6.13;2.78;;;;;;;12.47;69.45;100815.03;5053195;28;20024;-59
2022/11/06 11:19:40;;;;;;;8.30;2.80;;;;;;;12.44;70.11;100827.72;5039478;28;20318;-59
2022/11/06 11:22:15;;;;;;;7.50;3.20;;;;;;;12.41;69.82;100820.81;5054247;28;20021;-59
2022/11/06 11:25:07;;;;;;;7.25;2.83;;;;;;;12.35;69.81;100812.38;5039857;28;20420;-59
2022/11/06 11:27:45;;;;;;;7.07;2.97;;;;;;;12.22;70.25;100799.06;5041966;28;20087;-59
2022/11/06 11:30:20;;;;;;;8.63;3.50;;;;;;;12.14;70.57;100790.75;5037327;28;20037;-59
2022/11/06 11:32:45;;;;;;;6.22;3.17;;;;;;;12.18;68.36;100793.09;5038474;28;20021;-59
2022/11/06 11:35:18;;;;;;;5.88;3.33;;;;;;;12.12;69.52;100790.00;5052031;28;20033;-59
2022/11/06 11:37:44;;;;;;;10.10;3.22;;;;;;;12.11;69.09;100786.47;5039640;28;20092;-59
2022/11/06 11:40:35;;;;;;;9.77;2.88;;;;;;;12.05;68.81;100786.91;5034806;28;20048;-60
2022/11/06 11:43:28;;;;;;;6.10;2.67;;;;;;;11.99;68.95;100788.19;5054168;28;20104;-59
2022/11/06 11:46:03;;;;;;;5.57;2.63;;;;;;;11.93;69.29;100777.13;5053926;28;20036;-59
2022/11/06 11:48:43;;;;;;;6.28;2.85;;;;;;;11.95;68.10;100773.38;5052840;28;20210;-60
2022/11/06 11:51:35;;;;;;;5.57;3.03;;;;;;;11.94;69.57;100777.03;5050951;28;20036;-59
2022/11/06 11:54:16;;;;;;;6.95;3.20;;;;;;;11.94;69.19;100785.00;5033776;28;20044;-59
2022/11/06 11:56:49;;;;;;;6.35;3.35;;;;;;;11.91;68.63;100769.25;5052081;28;20025;-60
2022/11/06 11:59:25;;;;;;;5.75;2.97;;;;;;;11.97;69.07;100771.47;5035061;28;20454;-59